Terminal Aerodrome Forecast
Issued by NWS

Home | Current Version | Previous Version | Text Only | Print | Product List | Glossary On
Versions: 1 2 3 4 5 6 7 8 9 10 11 12 13 14 15 16
722
FTUS42 TJSJ 281733
TAFJSJ
TAF
TJSJ 281733Z 2818/2918 15010KT P6SM VCSH SCT025 BKN050 BKN090
     FM282330 11008KT P6SM BKN060
     FM291330 07012G18KT P6SM SCT025 SCT050=

USA.gov is the U.S. government's official web portal to all federal, state and local government web resources and services.